首页
METAR-TAF:

METAR-TAF

机场 :

Kerteh, 马来西亚

纬度: 04-32-15N, 经度: 103-25-36E, 海拔: 5米

当前天气观测

该预报发布于1小时和1分钟前的05:00 UTC
风速4节,风向西北,在西转西南之间变化
温度 27°C
湿度 94%
气压 1010 hPa
能見度: 9000
少量云层高于400英尺
散云层高于1500英尺
多云层高于14000英尺
小雨

METAR: WMKE 120500Z 31004KT 240V010 9000 -RA FEW004 SCT015 BKN140 27/26 Q1010

时间: 14:01 (06:01 UTC)

预报

该预报发布于1小时和1分钟前的05:00 UTC
预报有效从12日的 06点(UTC)到 13日的 06点(UTC)
风速5节,风向西转西北
能見度: 7000
少量云层高于1000英尺
散云层高于1400英尺
多云层高于14000英尺
小雨
短暂存在
从 12日的 06点(UTC)到 12日的 11点(UTC)
能見度: 6000
少量云层高于600英尺
少量云层高于1600英尺, 积雨云.
散云层高于1800英尺
多云层高于14000英尺
雷暴, 小雨

TAF: WMKE 120500Z 1206/1306 29005KT 7000 -RA FEW010 SCT014 BKN140 TEMPO 1206/1211 6000 -TSRA FEW006 FEW016CB SCT018 BKN140

超过4000个机场的气象观测和天气预报(METAR&TAF报告)。

可查询的气象台以黄色和红色小点在地图上表示。

将鼠标移到小点上方,可查看气象台名称。

然后点击查看天气观测和预报。

如需切换地图:点击带黑十字的绿色按钮放大地图;点击带横线的绿色按钮缩小地图;或者点击绿色箭头查看邻近地区的地图。


METAR-TAF: